Time;durP1;ratioP1;P1;durP2;ratioP2;P2;SDS_P1;SDS_P2;PMS_P1;PMS_P2;Temp;Humidity;BMP_temperature;BMP_pressure;BME280_temperature;BME280_humidity;BME280_pressure;Samples;Min_cycle;Max_cycle;Signal;HPM_P1;HPM_P2
2021/05/23 00:02:25;;;;;;;;;;;7.30;99.90;;;;;;10508454;28;20291;-66
2021/05/23 00:07:27;;;;;;;;;;;7.30;99.90;;;;;;10503797;28;19997;-66
2021/05/23 00:12:29;;;;;;;;;;;7.20;99.90;;;;;;10506599;28;19924;-66
2021/05/23 00:17:32;;;;;;;;;;;7.30;99.90;;;;;;10505911;28;20019;-66
2021/05/23 00:22:34;;;;;;;;;;;7.30;99.90;;;;;;10505927;28;20349;-66
2021/05/23 00:27:35;;;;;;;;;;;7.30;99.90;;;;;;10512847;28;19967;-66
2021/05/23 00:32:37;;;;;;;;;;;7.30;99.90;;;;;;10492983;28;19939;-66
2021/05/23 00:37:39;;;;;;;;;;;7.20;99.90;;;;;;10512873;28;19977;-66
2021/05/23 00:42:41;;;;;;;;;;;7.20;99.90;;;;;;10514906;28;20419;-66
2021/05/23 00:47:43;;;;;;;;;;;7.20;99.90;;;;;;10497149;28;20354;-66
2021/05/23 00:52:45;;;;;;;;;;;7.10;99.90;;;;;;10516206;28;19924;-66
2021/05/23 00:57:47;;;;;;;;;;;7.00;99.90;;;;;;10508807;28;19924;-66
2021/05/23 01:02:49;;;;;;;;;;;7.00;99.90;;;;;;10493148;28;19989;-66
2021/05/23 01:07:51;;;;;;;;;;;6.80;99.90;;;;;;10515496;28;20010;-66
2021/05/23 01:12:53;;;;;;;;;;;6.70;99.90;;;;;;10509362;28;20019;-66
2021/05/23 01:17:57;;;;;;;;;;;6.70;99.90;;;;;;10503779;28;19924;-67
2021/05/23 01:23:22;;;;;;;;;;;6.60;99.90;;;;;;10514343;28;20015;-66
2021/05/23 01:28:25;;;;;;;;;;;6.70;99.90;;;;;;10531174;28;19931;-66
2021/05/23 01:33:27;;;;;;;;;;;6.80;99.90;;;;;;10531051;28;20594;-66
2021/05/23 01:38:29;;;;;;;;;;;6.80;99.90;;;;;;10505604;28;20402;-66
2021/05/23 01:43:32;;;;;;;;;;;6.70;99.90;;;;;;10491065;28;19935;-66
2021/05/23 01:48:35;;;;;;;;;;;6.70;99.90;;;;;;10499828;28;20292;-66
2021/05/23 01:53:38;;;;;;;;;;;6.80;99.90;;;;;;10490535;28;19968;-66
2021/05/23 01:58:40;;;;;;;;;;;6.90;99.90;;;;;;10511018;28;19925;-66
2021/05/23 02:03:42;;;;;;;;;;;6.90;99.90;;;;;;10496881;28;19928;-66
2021/05/23 02:08:43;;;;;;;;;;;7.00;99.90;;;;;;10534749;28;20008;-66
2021/05/23 02:13:50;;;;;;;;;;;6.90;99.90;;;;;;10495835;28;19971;-66
2021/05/23 02:18:52;;;;;;;;;;;6.90;99.90;;;;;;10513269;28;19923;-66
2021/05/23 02:23:55;;;;;;;;;;;6.80;99.90;;;;;;10535782;28;20026;-66
2021/05/23 02:28:57;;;;;;;;;;;6.70;99.90;;;;;;10521626;28;20291;-66
2021/05/23 02:34:00;;;;;;;;;;;6.90;99.90;;;;;;10519230;28;20507;-66
2021/05/23 02:39:02;;;;;;;;;;;6.80;99.90;;;;;;10512580;28;20035;-66
2021/05/23 02:44:04;;;;;;;;;;;6.90;99.90;;;;;;10518300;28;19924;-66
2021/05/23 02:49:06;;;;;;;;;;;7.10;99.90;;;;;;10496522;28;19925;-66
2021/05/23 02:54:08;;;;;;;;;;;7.10;99.90;;;;;;10529620;28;20376;-66
2021/05/23 02:59:09;;;;;;;;;;;7.10;99.90;;;;;;10500446;28;19946;-66
2021/05/23 03:04:11;;;;;;;;;;;7.20;99.90;;;;;;10514060;28;19982;-66
2021/05/23 03:09:13;;;;;;;;;;;7.10;99.90;;;;;;10489140;28;20012;-66
2021/05/23 03:14:15;;;;;;;;;;;7.20;99.90;;;;;;10497735;28;20015;-66
2021/05/23 03:19:17;;;;;;;;;;;7.20;99.90;;;;;;10520328;28;19924;-66
2021/05/23 03:24:19;;;;;;;;;;;7.20;99.90;;;;;;10526853;28;20331;-66
2021/05/23 03:29:21;;;;;;;;;;;7.20;99.90;;;;;;10526725;28;20011;-66
2021/05/23 03:34:23;;;;;;;;;;;7.30;99.90;;;;;;10527339;28;19970;-66
2021/05/23 03:39:25;;;;;;;;;;;7.50;99.90;;;;;;10519769;28;20353;-66
2021/05/23 03:44:26;;;;;;;;;;;7.60;99.90;;;;;;10494817;28;20032;-66
2021/05/23 03:49:28;;;;;;;;;;;7.70;99.90;;;;;;10518957;28;19924;-66
2021/05/23 03:54:30;;;;;;;;;;;7.80;99.90;;;;;;10495857;28;20015;-66
2021/05/23 03:59:32;;;;;;;;;;;7.90;99.90;;;;;;10522127;28;19971;-66
2021/05/23 04:04:53;;;;;;;;;;;8.00;99.90;;;;;;10503949;28;20011;-66
2021/05/23 04:09:56;;;;;;;;;;;8.20;99.90;;;;;;10527954;28;19924;-66
2021/05/23 04:14:58;;;;;;;;;;;8.30;99.90;;;;;;10500986;28;19931;-66
2021/05/23 04:19:59;;;;;;;;;;;8.40;99.90;;;;;;10527425;28;20023;-66
2021/05/23 04:25:02;;;;;;;;;;;8.40;99.90;;;;;;10501506;28;19925;-66
2021/05/23 04:30:05;;;;;;;;;;;8.50;99.90;;;;;;10485896;28;19925;-66
2021/05/23 04:35:08;;;;;;;;;;;8.50;99.90;;;;;;10494564;28;20007;-67
2021/05/23 04:40:11;;;;;;;;;;;8.60;99.90;;;;;;10525476;28;20051;-66
2021/05/23 04:45:14;;;;;;;;;;;8.50;99.90;;;;;;10507065;28;20007;-66
2021/05/23 04:50:16;;;;;;;;;;;8.60;99.90;;;;;;10527763;28;19979;-66
2021/05/23 04:55:18;;;;;;;;;;;8.60;99.90;;;;;;10497791;28;20007;-66
2021/05/23 05:00:20;;;;;;;;;;;8.90;99.90;;;;;;10528213;28;20031;-66
2021/05/23 05:05:22;;;;;;;;;;;9.20;99.90;;;;;;10496768;28;20011;-66
2021/05/23 05:10:24;;;;;;;;;;;9.50;99.90;;;;;;10529503;28;19999;-66
2021/05/23 05:15:26;;;;;;;;;;;9.60;99.90;;;;;;10499995;28;19975;-66
2021/05/23 05:20:28;;;;;;;;;;;9.90;99.90;;;;;;10523291;28;19928;-66
2021/05/23 05:25:29;;;;;;;;;;;13.80;99.90;;;;;;10496728;28;20391;-66
2021/05/23 05:30:31;;;;;;;;;;;17.90;98.30;;;;;;10499279;28;19934;-66
2021/05/23 05:35:33;;;;;;;;;;;14.80;99.50;;;;;;10524626;28;19931;-66
2021/05/23 05:40:35;;;;;;;;;;;12.30;99.90;;;;;;10516006;28;20011;-67
2021/05/23 05:45:37;;;;;;;;;;;11.30;99.90;;;;;;10496982;28;20051;-66
2021/05/23 05:50:38;;;;;;;;;;;10.60;99.90;;;;;;10524707;28;19925;-67
2021/05/23 05:55:40;;;;;;;;;;;10.70;99.90;;;;;;10495943;28;20011;-66
2021/05/23 06:00:42;;;;;;;;;;;11.30;99.90;;;;;;10524789;28;20439;-66
2021/05/23 06:05:44;;;;;;;;;;;11.40;99.90;;;;;;10494276;28;20023;-66
2021/05/23 06:10:45;;;;;;;;;;;11.20;99.90;;;;;;10526407;28;19975;-66
2021/05/23 06:15:47;;;;;;;;;;;11.50;99.90;;;;;;10489573;28;19928;-66
2021/05/23 06:20:49;;;;;;;;;;;11.80;99.90;;;;;;10528834;28;19924;-66
2021/05/23 06:25:51;;;;;;;;;;;12.00;99.90;;;;;;10526778;28;19981;-67
2021/05/23 06:30:53;;;;;;;;;;;12.20;99.90;;;;;;10526784;28;20024;-66
2021/05/23 06:35:54;;;;;;;;;;;12.20;99.90;;;;;;10474494;28;20266;-66
2021/05/23 06:40:56;;;;;;;;;;;11.60;99.90;;;;;;10524999;28;20023;-66
2021/05/23 06:45:58;;;;;;;;;;;11.30;99.90;;;;;;10502625;28;19967;-66
2021/05/23 06:51:00;;;;;;;;;;;11.40;99.90;;;;;;10526019;28;19924;-66
2021/05/23 06:56:02;;;;;;;;;;;11.80;99.90;;;;;;10483171;28;19931;-66
2021/05/23 07:01:04;;;;;;;;;;;11.90;99.90;;;;;;10501601;28;19931;-66
2021/05/23 07:06:05;;;;;;;;;;;12.00;99.90;;;;;;10515902;28;20077;-66
2021/05/23 07:11:07;;;;;;;;;;;12.00;99.90;;;;;;10407105;28;19933;-66
2021/05/23 07:16:09;;;;;;;;;;;12.00;99.90;;;;;;10362277;28;19930;-66
2021/05/23 07:21:11;;;;;;;;;;;12.40;99.90;;;;;;10369368;28;20024;-66
2021/05/23 07:26:13;;;;;;;;;;;12.80;99.90;;;;;;10361064;28;20316;-66
2021/05/23 07:31:15;;;;;;;;;;;13.20;99.90;;;;;;10362080;28;19929;-66
2021/05/23 07:36:17;;;;;;;;;;;14.10;99.80;;;;;;10390906;28;19968;-66
2021/05/23 07:41:18;;;;;;;;;;;15.30;95.30;;;;;;10402691;28;20008;-66
2021/05/23 07:46:20;;;;;;;;;;;16.50;83.80;;;;;;10372423;28;20024;-66
2021/05/23 07:51:22;;;;;;;;;;;17.00;74.80;;;;;;10393381;28;19965;-67
2021/05/23 07:56:24;;;;;;;;;;;17.50;67.60;;;;;;10405762;28;19932;-67
2021/05/23 08:01:26;;;;;;;;;;;17.40;67.90;;;;;;10409184;28;20049;-66
2021/05/23 08:06:27;;;;;;;;;;;17.80;64.20;;;;;;10403903;28;20019;-67
2021/05/23 08:11:29;;;;;;;;;;;17.40;63.40;;;;;;10368448;28;19926;-67
2021/05/23 08:16:31;;;;;;;;;;;17.90;60.30;;;;;;10373045;28;19972;-67
2021/05/23 08:21:33;;;;;;;;;;;17.40;59.50;;;;;;10402881;28;20023;-67
2021/05/23 08:26:35;;;;;;;;;;;17.70;58.50;;;;;;10369403;28;19937;-67
2021/05/23 08:31:36;;;;;;;;;;;17.60;58.80;;;;;;10382350;28;20020;-67
2021/05/23 08:36:38;;;;;;;;;;;17.90;56.70;;;;;;10398363;28;19925;-67
2021/05/23 08:41:40;;;;;;;;;;;18.20;57.20;;;;;;10404481;28;20350;-67
2021/05/23 08:46:44;;;;;;;;;;;18.10;56.00;;;;;;10383982;28;19929;-67
2021/05/23 08:51:46;;;;;;;;;;;17.80;54.70;;;;;;10403607;28;20004;-67
2021/05/23 08:56:49;;;;;;;;;;;18.40;53.30;;;;;;10398449;28;20028;-67
2021/05/23 09:01:51;;;;;;;;;;;17.70;54.60;;;;;;10406218;28;20024;-67
2021/05/23 09:06:59;;;;;;;;;;;17.90;53.80;;;;;;10395635;28;20020;-67
2021/05/23 09:12:04;;;;;;;;;;;18.70;53.80;;;;;;10408059;28;20019;-67
2021/05/23 09:17:06;;;;;;;;;;;18.30;53.20;;;;;;10369341;28;20363;-67
2021/05/23 09:22:11;;;;;;;;;;;17.50;53.40;;;;;;10393127;28;20336;-67
2021/05/23 09:27:13;;;;;;;;;;;16.50;56.00;;;;;;10368359;28;20023;-67
2021/05/23 09:32:17;;;;;;;;;;;15.90;57.10;;;;;;10373602;28;19925;-67
2021/05/23 09:37:20;;;;;;;;;;;16.20;56.00;;;;;;10399535;28;19975;-67
2021/05/23 09:42:24;;;;;;;;;;;17.10;56.10;;;;;;10371062;28;19948;-67
2021/05/23 09:47:26;;;;;;;;;;;17.40;53.50;;;;;;10372648;28;19932;-67
2021/05/23 09:52:35;;;;;;;;;;;16.20;55.10;;;;;;10379571;28;19989;-68
2021/05/23 09:57:38;;;;;;;;;;;15.70;57.40;;;;;;10367726;28;19933;-67
2021/05/23 10:02:59;;;;;;;;;;;15.80;57.00;;;;;;10364956;28;19961;-67
2021/05/23 10:08:14;;;;;;;;;;;15.50;57.30;;;;;;10366066;28;19964;-66
2021/05/23 10:13:16;;;;;;;;;;;15.10;59.30;;;;;;10364241;28;20027;-66
2021/05/23 10:18:27;;;;;;;;;;;14.40;66.10;;;;;;10364304;28;21532;-66
2021/05/23 10:23:31;;;;;;;;;;;14.80;64.40;;;;;;10365886;28;20344;-66
2021/05/23 10:28:40;;;;;;;;;;;16.20;58.80;;;;;;10364985;28;20020;-66
2021/05/23 10:33:48;;;;;;;;;;;16.30;57.60;;;;;;10365013;28;20376;-66
2021/05/23 10:39:01;;;;;;;;;;;15.50;60.20;;;;;;10365013;28;20271;-66
2021/05/23 10:44:05;;;;;;;;;;;14.90;59.10;;;;;;10364622;28;19925;-66
2021/05/23 10:49:07;;;;;;;;;;;15.00;60.00;;;;;;10364318;28;19984;-66
2021/05/23 10:54:12;;;;;;;;;;;16.00;58.60;;;;;;10364778;28;19929;-66
2021/05/23 10:59:14;;;;;;;;;;;16.50;57.80;;;;;;10364391;28;19972;-66
2021/05/23 11:04:17;;;;;;;;;;;17.20;58.40;;;;;;10362798;28;19964;-66
2021/05/23 11:09:20;;;;;;;;;;;17.20;57.00;;;;;;10362078;28;19976;-66
2021/05/23 11:14:23;;;;;;;;;;;16.80;56.80;;;;;;10362712;28;20019;-66
2021/05/23 11:19:29;;;;;;;;;;;16.40;58.10;;;;;;10362759;28;20321;-66
2021/05/23 11:24:32;;;;;;;;;;;16.20;58.10;;;;;;10363523;28;20004;-66
2021/05/23 11:29:34;;;;;;;;;;;16.20;56.40;;;;;;10362249;28;19992;-66
2021/05/23 11:34:36;;;;;;;;;;;16.10;57.70;;;;;;10362038;28;19926;-66
2021/05/23 11:39:37;;;;;;;;;;;16.60;57.90;;;;;;10361586;28;20011;-66
2021/05/23 11:44:41;;;;;;;;;;;17.30;55.50;;;;;;10361598;28;20004;-66
2021/05/23 11:49:47;;;;;;;;;;;16.60;55.50;;;;;;10360718;28;20003;-66
2021/05/23 11:54:58;;;;;;;;;;;16.60;56.10;;;;;;10361857;28;19937;-66
2021/05/23 12:00:00;;;;;;;;;;;16.70;54.80;;;;;;10361964;28;20417;-66
2021/05/23 12:05:02;;;;;;;;;;;17.30;55.70;;;;;;10361151;28;19929;-66
2021/05/23 12:10:05;;;;;;;;;;;17.70;54.70;;;;;;10361219;28;19973;-66
2021/05/23 12:15:07;;;;;;;;;;;18.00;51.50;;;;;;10361471;28;20025;-66
2021/05/23 12:20:09;;;;;;;;;;;17.40;51.40;;;;;;10363440;28;19929;-66
2021/05/23 12:25:14;;;;;;;;;;;17.80;52.10;;;;;;10367836;28;20724;-66
2021/05/23 12:30:26;;;;;;;;;;;17.80;48.80;;;;;;10400235;28;20016;-66
2021/05/23 12:35:28;;;;;;;;;;;17.70;49.40;;;;;;10368230;28;20422;-66
2021/05/23 12:40:31;;;;;;;;;;;17.30;49.30;;;;;;10368129;28;19976;-66
2021/05/23 12:45:33;;;;;;;;;;;17.70;49.60;;;;;;10368295;28;20012;-66
2021/05/23 12:50:35;;;;;;;;;;;17.60;49.30;;;;;;10368106;28;19929;-66
2021/05/23 12:55:40;;;;;;;;;;;17.80;49.70;;;;;;10367048;28;19952;-66
2021/05/23 13:00:43;;;;;;;;;;;17.70;49.10;;;;;;10366829;28;19969;-66
2021/05/23 13:05:56;;;;;;;;;;;17.90;47.90;;;;;;10367220;28;19929;-66
2021/05/23 13:10:59;;;;;;;;;;;17.70;48.80;;;;;;10367191;28;20053;-66
2021/05/23 13:16:04;;;;;;;;;;;17.90;48.80;;;;;;10366876;28;19960;-66
2021/05/23 13:21:11;;;;;;;;;;;18.40;47.60;;;;;;10365719;28;19992;-66
2021/05/23 13:26:14;;;;;;;;;;;18.80;47.00;;;;;;10366103;28;20146;-66
2021/05/23 13:31:16;;;;;;;;;;;18.90;46.40;;;;;;10366088;28;20004;-66
2021/05/23 13:36:18;;;;;;;;;;;18.40;46.40;;;;;;10365976;28;19925;-66
2021/05/23 13:41:20;;;;;;;;;;;18.40;46.70;;;;;;10365417;28;20024;-66
2021/05/23 13:46:22;;;;;;;;;;;18.50;47.10;;;;;;10365906;28;19926;-66
2021/05/23 13:51:24;;;;;;;;;;;18.60;47.20;;;;;;10365622;28;19968;-66
2021/05/23 13:56:26;;;;;;;;;;;18.10;48.20;;;;;;10365532;28;20322;-67
2021/05/23 14:01:29;;;;;;;;;;;18.50;48.40;;;;;;10365018;28;19969;-66
2021/05/23 14:06:31;;;;;;;;;;;18.10;48.40;;;;;;10364516;28;20028;-66
2021/05/23 14:11:33;;;;;;;;;;;17.80;48.90;;;;;;10365102;28;20062;-66
2021/05/23 14:16:35;;;;;;;;;;;18.50;48.80;;;;;;10365098;28;19930;-66
2021/05/23 14:21:37;;;;;;;;;;;18.00;49.50;;;;;;10363938;28;20012;-66
2021/05/23 14:26:39;;;;;;;;;;;17.80;48.80;;;;;;10364024;28;19995;-66
2021/05/23 14:31:41;;;;;;;;;;;18.10;49.80;;;;;;10363383;28;20016;-66
2021/05/23 14:36:43;;;;;;;;;;;18.70;49.20;;;;;;10362649;28;20018;-66
2021/05/23 14:41:45;;;;;;;;;;;18.70;49.40;;;;;;10363503;28;19932;-66
2021/05/23 14:46:47;;;;;;;;;;;18.30;49.90;;;;;;10362093;28;20300;-66
2021/05/23 14:51:48;;;;;;;;;;;18.30;48.90;;;;;;10363739;28;19936;-66
2021/05/23 14:56:50;;;;;;;;;;;17.80;49.40;;;;;;10363340;28;20781;-66
2021/05/23 15:01:52;;;;;;;;;;;17.70;49.80;;;;;;10363333;28;19929;-66
2021/05/23 15:06:54;;;;;;;;;;;17.70;50.20;;;;;;10362679;28;19929;-66
2021/05/23 15:11:56;;;;;;;;;;;17.70;49.60;;;;;;10363411;28;20012;-66
2021/05/23 15:16:58;;;;;;;;;;;17.80;50.50;;;;;;10363483;28;19925;-66
2021/05/23 15:21:59;;;;;;;;;;;17.90;48.80;;;;;;10362444;28;20385;-66
2021/05/23 15:32:26;;;;;;;;;;;17.70;48.00;;;;;;10388801;28;20322;-66
2021/05/23 15:37:29;;;;;;;;;;;17.50;48.70;;;;;;10363133;28;20411;-66
2021/05/23 15:42:31;;;;;;;;;;;17.70;48.90;;;;;;10362401;28;20012;-66
2021/05/23 15:47:34;;;;;;;;;;;17.90;48.80;;;;;;10393082;28;19977;-66
2021/05/23 15:52:44;;;;;;;;;;;18.20;48.20;;;;;;10361660;28;19976;-66
2021/05/23 15:57:46;;;;;;;;;;;18.30;46.70;;;;;;10368255;28;20550;-66
2021/05/23 16:02:47;;;;;;;;;;;18.30;47.30;;;;;;10370262;28;20020;-66
2021/05/23 16:07:56;;;;;;;;;;;18.30;47.60;;;;;;10368510;28;20444;-66
2021/05/23 16:12:58;;;;;;;;;;;18.20;47.50;;;;;;10370360;28;19964;-67
2021/05/23 16:18:00;;;;;;;;;;;17.60;47.50;;;;;;10367589;28;20393;-66
2021/05/23 16:23:02;;;;;;;;;;;17.40;49.20;;;;;;10368612;28;19939;-66
2021/05/23 16:28:04;;;;;;;;;;;17.10;48.60;;;;;;10369062;28;19956;-66
2021/05/23 16:33:06;;;;;;;;;;;17.00;49.30;;;;;;10367924;28;19953;-66
2021/05/23 16:38:08;;;;;;;;;;;17.00;49.00;;;;;;10365212;28;20449;-66
2021/05/23 16:43:09;;;;;;;;;;;17.00;49.30;;;;;;10365716;28;19932;-66
2021/05/23 16:48:12;;;;;;;;;;;16.90;49.40;;;;;;10365042;28;20071;-66
2021/05/23 16:53:15;;;;;;;;;;;16.70;49.20;;;;;;10364352;28;20008;-66
2021/05/23 16:58:17;;;;;;;;;;;16.60;49.90;;;;;;10365301;28;19925;-66
2021/05/23 17:03:19;;;;;;;;;;;16.50;49.80;;;;;;10367426;28;19932;-66
2021/05/23 17:08:21;;;;;;;;;;;16.40;50.20;;;;;;10364872;28;20039;-66
2021/05/23 17:13:22;;;;;;;;;;;16.20;50.90;;;;;;10365171;28;19961;-66
2021/05/23 17:18:24;;;;;;;;;;;16.20;50.70;;;;;;10364955;28;20007;-66
2021/05/23 17:23:26;;;;;;;;;;;16.10;50.80;;;;;;10365228;28;20412;-66
2021/05/23 17:28:28;;;;;;;;;;;16.00;51.00;;;;;;10365341;28;20022;-66
2021/05/23 17:33:30;;;;;;;;;;;16.00;51.30;;;;;;10364893;28;20336;-66
2021/05/23 17:38:36;;;;;;;;;;;16.20;51.30;;;;;;10380579;28;20353;-66
2021/05/23 17:43:38;;;;;;;;;;;16.30;51.30;;;;;;10364764;28;19975;-66
2021/05/23 17:48:40;;;;;;;;;;;16.20;51.20;;;;;;10365372;28;20012;-66
2021/05/23 17:53:41;;;;;;;;;;;16.20;51.30;;;;;;10363319;28;19929;-66
2021/05/23 17:58:43;;;;;;;;;;;16.20;51.60;;;;;;10364494;28;20382;-66
2021/05/23 18:03:45;;;;;;;;;;;16.10;51.50;;;;;;10362466;28;20032;-66
2021/05/23 18:08:47;;;;;;;;;;;15.90;51.40;;;;;;10365347;28;19961;-66
2021/05/23 18:13:49;;;;;;;;;;;16.00;51.80;;;;;;10362826;28;20028;-66
2021/05/23 18:18:51;;;;;;;;;;;16.00;52.10;;;;;;10363855;28;19925;-66
2021/05/23 18:23:58;;;;;;;;;;;15.90;52.20;;;;;;10364392;28;19926;-66
2021/05/23 18:29:00;;;;;;;;;;;15.70;53.00;;;;;;10364352;28;19936;-66
2021/05/23 18:34:03;;;;;;;;;;;15.70;52.70;;;;;;10364839;28;19925;-66
2021/05/23 18:39:10;;;;;;;;;;;15.50;53.40;;;;;;10364407;28;19925;-66
2021/05/23 18:44:12;;;;;;;;;;;15.30;54.90;;;;;;10360793;28;19929;-66
2021/05/23 18:49:14;;;;;;;;;;;15.10;56.10;;;;;;10362647;28;19980;-66
2021/05/23 18:54:15;;;;;;;;;;;14.90;55.40;;;;;;10364056;28;20376;-67
2021/05/23 18:59:17;;;;;;;;;;;14.90;56.80;;;;;;10363637;28;20016;-67
2021/05/23 19:04:20;;;;;;;;;;;14.50;59.00;;;;;;10363481;28;20305;-66
2021/05/23 19:09:22;;;;;;;;;;;14.30;58.20;;;;;;10363113;28;20019;-66
2021/05/23 19:14:24;;;;;;;;;;;14.10;60.90;;;;;;10360743;28;20469;-66
2021/05/23 19:19:25;;;;;;;;;;;14.00;61.10;;;;;;10362863;28;19926;-66
2021/05/23 19:24:27;;;;;;;;;;;13.80;62.70;;;;;;10363039;28;20016;-66
2021/05/23 19:29:29;;;;;;;;;;;13.40;64.00;;;;;;10364072;28;20087;-66
2021/05/23 19:34:31;;;;;;;;;;;13.10;65.50;;;;;;10369033;28;20330;-66
2021/05/23 19:39:32;;;;;;;;;;;13.00;66.20;;;;;;10370681;28;20613;-66
2021/05/23 19:44:34;;;;;;;;;;;12.60;66.40;;;;;;10371192;28;19977;-66
2021/05/23 19:49:45;;;;;;;;;;;12.20;68.90;;;;;;10370964;28;20433;-66
2021/05/23 19:54:50;;;;;;;;;;;12.10;71.30;;;;;;10370146;28;19960;-66
2021/05/23 19:59:53;;;;;;;;;;;11.90;77.00;;;;;;10371149;28;19929;-66
2021/05/23 20:04:55;;;;;;;;;;;11.90;83.60;;;;;;10370098;28;20016;-66
2021/05/23 20:09:57;;;;;;;;;;;11.70;90.20;;;;;;10370023;28;19968;-66
2021/05/23 20:14:58;;;;;;;;;;;11.60;93.60;;;;;;10369683;28;19925;-66
2021/05/23 20:20:00;;;;;;;;;;;11.50;96.00;;;;;;10369311;28;19974;-66
2021/05/23 20:25:03;;;;;;;;;;;11.30;98.20;;;;;;10369158;28;20024;-66
2021/05/23 20:30:06;;;;;;;;;;;11.10;99.90;;;;;;10364347;28;20016;-66
2021/05/23 20:35:08;;;;;;;;;;;11.00;99.90;;;;;;10369164;28;20025;-66
2021/05/23 20:40:10;;;;;;;;;;;10.90;99.90;;;;;;10369197;28;20369;-66
2021/05/23 20:45:13;;;;;;;;;;;10.80;99.90;;;;;;10368463;28;20020;-66
2021/05/23 20:50:15;;;;;;;;;;;10.70;99.90;;;;;;10369305;28;20036;-66
2021/05/23 20:55:17;;;;;;;;;;;10.50;99.90;;;;;;10368074;28;20020;-66
2021/05/23 21:00:19;;;;;;;;;;;10.30;99.90;;;;;;10362986;28;20024;-65
2021/05/23 21:05:21;;;;;;;;;;;9.90;99.90;;;;;;10367333;28;20461;-66
2021/05/23 21:10:23;;;;;;;;;;;9.90;99.90;;;;;;10368571;28;19969;-66
2021/05/23 21:15:25;;;;;;;;;;;9.80;99.90;;;;;;10369127;28;20012;-66
2021/05/23 21:20:27;;;;;;;;;;;9.50;99.90;;;;;;10368491;28;19979;-66
2021/05/23 21:25:28;;;;;;;;;;;9.50;99.90;;;;;;10370749;28;20012;-66
2021/05/23 21:30:30;;;;;;;;;;;9.50;99.90;;;;;;10382723;28;19961;-66
2021/05/23 21:35:32;;;;;;;;;;;9.50;99.90;;;;;;10379312;28;20027;-66
2021/05/23 21:40:35;;;;;;;;;;;9.30;99.90;;;;;;10428538;28;19983;-66
2021/05/23 21:45:37;;;;;;;;;;;9.30;99.90;;;;;;10375999;28;19984;-66
2021/05/23 21:50:39;;;;;;;;;;;9.30;99.90;;;;;;10366496;28;19964;-66
2021/05/23 21:55:41;;;;;;;;;;;9.20;99.90;;;;;;10367297;28;19960;-66
2021/05/23 22:00:43;;;;;;;;;;;9.10;99.90;;;;;;10367811;28;19929;-66
2021/05/23 22:06:05;;;;;;;;;;;8.70;99.90;;;;;;10378502;28;19932;-66
2021/05/23 22:11:07;;;;;;;;;;;8.60;99.90;;;;;;10366854;28;19925;-66
2021/05/23 22:16:09;;;;;;;;;;;8.40;99.90;;;;;;10364040;28;20008;-66
2021/05/23 22:21:11;;;;;;;;;;;8.40;99.90;;;;;;10363516;28;19984;-66
2021/05/23 22:26:13;;;;;;;;;;;8.50;99.90;;;;;;10357901;28;19925;-66
2021/05/23 22:31:15;;;;;;;;;;;8.50;99.90;;;;;;10364730;28;19983;-66
2021/05/23 22:36:17;;;;;;;;;;;8.40;99.90;;;;;;10369959;28;19969;-66
2021/05/23 22:41:19;;;;;;;;;;;8.30;99.90;;;;;;10374171;28;20459;-66
2021/05/23 22:46:21;;;;;;;;;;;8.00;99.90;;;;;;10365496;28;20008;-66
2021/05/23 22:51:23;;;;;;;;;;;8.10;99.90;;;;;;10380876;28;20314;-66
2021/05/23 22:56:25;;;;;;;;;;;8.20;99.90;;;;;;10380962;28;19972;-66
2021/05/23 23:01:35;;;;;;;;;;;8.10;99.90;;;;;;10372576;28;20016;-66
2021/05/23 23:06:37;;;;;;;;;;;7.80;99.90;;;;;;10402049;28;20017;-66
2021/05/23 23:11:39;;;;;;;;;;;7.70;99.90;;;;;;10388603;28;20023;-66
2021/05/23 23:16:41;;;;;;;;;;;7.70;99.90;;;;;;10364789;28;20405;-66
2021/05/23 23:21:43;;;;;;;;;;;7.80;99.90;;;;;;10377792;28;20004;-66
2021/05/23 23:26:45;;;;;;;;;;;7.80;99.90;;;;;;10368526;28;20012;-66
2021/05/23 23:31:47;;;;;;;;;;;7.60;99.90;;;;;;10392598;28;19925;-66
2021/05/23 23:36:48;;;;;;;;;;;7.40;99.90;;;;;;10375179;28;20016;-67
2021/05/23 23:41:50;;;;;;;;;;;7.60;99.90;;;;;;10364471;28;19948;-66
2021/05/23 23:46:52;;;;;;;;;;;7.70;99.90;;;;;;10389782;28;20438;-66
2021/05/23 23:51:54;;;;;;;;;;;7.50;99.90;;;;;;10401124;28;19925;-66
2021/05/23 23:56:56;;;;;;;;;;;7.40;99.90;;;;;;10368611;28;20405;-66
